createdAt,value
2023-10-13T00:02:04.448Z,79.67
2023-10-13T00:04:36.834Z,79.99
2023-10-13T00:07:05.808Z,79.96
2023-10-13T00:09:33.892Z,80.13
2023-10-13T00:12:01.924Z,80.19
2023-10-13T00:14:36.293Z,80.16
2023-10-13T00:17:06.681Z,80.32
2023-10-13T00:19:48.110Z,80.36
2023-10-13T00:22:17.678Z,80.59
2023-10-13T00:24:49.352Z,80.55
2023-10-13T00:27:28.898Z,80.85
2023-10-13T00:30:23.636Z,80.68
2023-10-13T00:32:57.761Z,80.70
2023-10-13T00:35:30.268Z,80.93
2023-10-13T00:38:04.959Z,81.16
2023-10-13T00:40:33.916Z,81.08
2023-10-13T00:43:21.331Z,81.13
2023-10-13T00:45:59.342Z,80.64
2023-10-13T00:48:35.895Z,80.42
2023-10-13T00:51:08.381Z,80.61
2023-10-13T00:53:42.029Z,80.51
2023-10-13T00:56:28.586Z,80.34
2023-10-13T00:59:00.514Z,80.49
2023-10-13T01:01:35.238Z,80.20
2023-10-13T01:04:04.662Z,80.34
2023-10-13T01:06:33.292Z,80.89
2023-10-13T01:09:14.017Z,81.09
2023-10-13T01:11:53.438Z,80.86
2023-10-13T01:14:24.997Z,80.86
2023-10-13T01:16:54.196Z,81.02
2023-10-13T01:19:29.200Z,80.87
2023-10-13T01:22:05.199Z,80.74
2023-10-13T01:24:36.411Z,80.85
2023-10-13T01:27:21.725Z,80.69
2023-10-13T01:29:52.987Z,80.73
2023-10-13T01:32:23.941Z,80.63
2023-10-13T01:34:56.735Z,80.76
2023-10-13T01:37:24.894Z,80.95
2023-10-13T01:39:53.158Z,80.75
2023-10-13T01:42:23.585Z,81.09
2023-10-13T01:44:52.556Z,81.06
2023-10-13T01:47:22.069Z,81.26
2023-10-13T01:49:51.661Z,80.95
2023-10-13T01:52:20.469Z,80.77
2023-10-13T01:54:50.776Z,80.98
2023-10-13T01:57:19.492Z,80.94
2023-10-13T01:59:50.010Z,81.04
2023-10-13T02:02:31.046Z,80.91
2023-10-13T02:05:02.492Z,80.56
2023-10-13T02:07:36.251Z,80.55
2023-10-13T02:10:07.644Z,80.99
2023-10-13T02:12:56.794Z,81.16
2023-10-13T02:15:27.731Z,81.16
2023-10-13T02:17:56.793Z,81.68
2023-10-13T02:20:25.617Z,81.66
2023-10-13T02:22:53.621Z,81.54
2023-10-13T02:25:37.156Z,81.34
2023-10-13T02:28:15.045Z,81.34
2023-10-13T02:30:50.139Z,81.28
2023-10-13T02:33:30.673Z,81.46
2023-10-13T02:36:00.262Z,81.62
2023-10-13T02:38:48.501Z,81.53
2023-10-13T02:41:28.883Z,81.71
2023-10-13T02:43:57.462Z,81.84
2023-10-13T02:46:30.063Z,81.66
2023-10-13T02:49:03.807Z,81.99
2023-10-13T02:51:36.914Z,81.85
2023-10-13T02:54:13.030Z,81.45
2023-10-13T02:57:10.227Z,81.38
2023-10-13T02:59:41.849Z,81.21
2023-10-13T03:02:19.760Z,81.67
2023-10-13T03:05:09.805Z,82.12
2023-10-13T03:07:38.000Z,82.03
2023-10-13T03:10:12.805Z,81.95
2023-10-13T03:12:41.626Z,82.09
2023-10-13T03:15:16.033Z,82.21
2023-10-13T03:17:45.596Z,82.51
2023-10-13T03:20:17.325Z,82.48
2023-10-13T03:22:48.340Z,82.37
2023-10-13T03:25:30.787Z,82.36
2023-10-13T03:28:02.063Z,82.61
2023-10-13T03:30:36.054Z,82.34
2023-10-13T03:33:09.486Z,81.97
2023-10-13T03:35:43.629Z,81.90
2023-10-13T03:38:20.933Z,81.86
2023-10-13T03:41:12.061Z,81.98
2023-10-13T03:44:12.164Z,81.94
2023-10-13T03:46:42.440Z,81.96
2023-10-13T03:49:14.237Z,82.33
2023-10-13T03:51:42.412Z,82.13
2023-10-13T03:54:10.508Z,82.11
2023-10-13T03:56:41.791Z,82.19
2023-10-13T03:59:11.275Z,82.34
2023-10-13T04:01:45.205Z,82.37
2023-10-13T04:04:16.024Z,82.41
2023-10-13T04:06:46.901Z,82.23
2023-10-13T04:09:30.737Z,82.51
2023-10-13T04:12:05.463Z,82.53
2023-10-13T04:14:46.179Z,82.69
2023-10-13T04:17:17.184Z,82.67
2023-10-13T04:20:08.402Z,82.71
2023-10-13T04:22:47.450Z,82.92
2023-10-13T04:25:38.781Z,82.83
2023-10-13T04:28:17.660Z,82.76
2023-10-13T04:30:53.207Z,82.59
2023-10-13T04:33:33.254Z,82.53
2023-10-13T04:36:15.653Z,82.28
2023-10-13T04:38:57.933Z,82.11
2023-10-13T04:41:33.526Z,82.15
2023-10-13T04:44:24.598Z,82.22
2023-10-13T04:46:53.300Z,82.28
2023-10-13T04:49:30.123Z,82.25
2023-10-13T04:52:00.434Z,82.30
2023-10-13T04:54:46.456Z,81.88
2023-10-13T04:57:24.845Z,81.80
2023-10-13T05:00:12.399Z,81.77
2023-10-13T05:02:57.300Z,82.00
2023-10-13T05:05:43.851Z,82.17
2023-10-13T05:08:30.696Z,82.32
2023-10-13T05:11:17.295Z,82.56
2023-10-13T05:14:03.638Z,82.74
2023-10-13T05:16:50.135Z,82.81
2023-10-13T05:19:36.908Z,82.94
2023-10-13T05:22:23.772Z,83.43
2023-10-13T05:25:15.271Z,83.18
2023-10-13T05:28:02.897Z,83.13
2023-10-13T05:30:51.893Z,83.17
2023-10-13T05:33:38.164Z,83.20
2023-10-13T05:36:30.601Z,82.97
2023-10-13T05:39:17.172Z,82.79
2023-10-13T05:42:03.673Z,82.60
2023-10-13T05:44:35.021Z,82.31
2023-10-13T05:47:23.289Z,81.95
2023-10-13T05:49:53.942Z,82.30
2023-10-13T05:52:41.881Z,82.63
2023-10-13T05:55:28.857Z,82.57
2023-10-13T05:58:15.698Z,82.58
2023-10-13T06:01:02.156Z,82.63
2023-10-13T06:03:49.014Z,82.46
2023-10-13T06:06:35.666Z,82.49
2023-10-13T06:09:22.491Z,82.87
2023-10-13T06:12:09.537Z,82.75
2023-10-13T06:14:56.454Z,82.74
2023-10-13T06:17:43.256Z,82.82
2023-10-13T06:20:29.859Z,82.73
2023-10-13T06:23:16.517Z,82.65
2023-10-13T06:26:02.977Z,82.41
2023-10-13T06:28:43.100Z,82.37
2023-10-13T06:31:27.598Z,82.70
2023-10-13T06:33:57.041Z,82.73
2023-10-13T06:36:26.913Z,82.78
2023-10-13T06:39:17.624Z,82.64
2023-10-13T06:41:45.664Z,82.84
2023-10-13T06:44:17.162Z,82.80
2023-10-13T06:46:45.808Z,82.64
2023-10-13T06:49:15.453Z,82.47
2023-10-13T06:51:44.001Z,82.47
2023-10-13T06:54:20.649Z,82.40
2023-10-13T06:56:53.487Z,82.61
2023-10-13T06:59:27.779Z,82.86
2023-10-13T07:02:12.535Z,82.97
2023-10-13T07:04:49.670Z,83.04
2023-10-13T07:07:17.871Z,83.58
2023-10-13T07:09:56.422Z,83.50
2023-10-13T07:12:27.520Z,83.41
2023-10-13T07:15:04.988Z,83.46
2023-10-13T07:17:39.247Z,83.37
2023-10-13T07:20:27.135Z,83.04
2023-10-13T07:23:04.752Z,83.00
2023-10-13T07:25:41.325Z,83.02
2023-10-13T07:28:09.924Z,82.65
2023-10-13T07:30:50.657Z,82.85
2023-10-13T07:33:21.364Z,82.89
2023-10-13T07:36:17.108Z,83.17
2023-10-13T07:38:58.834Z,83.26
2023-10-13T07:41:34.961Z,83.22
2023-10-13T07:44:05.981Z,83.30
2023-10-13T07:46:36.793Z,83.09
2023-10-13T07:49:12.032Z,82.66
2023-10-13T07:51:45.496Z,82.82
2023-10-13T07:54:23.005Z,82.62
2023-10-13T07:56:52.005Z,82.11
2023-10-13T07:59:23.517Z,81.71
2023-10-13T08:02:13.627Z,81.45
2023-10-13T08:04:41.878Z,81.30
2023-10-13T08:07:15.657Z,81.24
2023-10-13T08:09:52.665Z,80.81
2023-10-13T08:12:22.827Z,80.01
2023-10-13T08:15:10.459Z,79.65
2023-10-13T08:17:38.429Z,79.85
2023-10-13T08:20:12.851Z,79.83
2023-10-13T08:22:47.862Z,79.66
2023-10-13T08:25:25.950Z,79.29
2023-10-13T08:28:12.243Z,79.16
2023-10-13T08:30:55.323Z,79.26
2023-10-13T08:33:27.857Z,79.14
2023-10-13T08:35:56.354Z,79.10
2023-10-13T08:38:31.789Z,78.83
2023-10-13T08:41:19.630Z,78.72
2023-10-13T08:43:54.829Z,78.69
2023-10-13T08:46:27.275Z,78.32
2023-10-13T08:49:15.322Z,78.11
2023-10-13T08:52:06.044Z,77.88
2023-10-13T08:54:40.088Z,77.78
2023-10-13T08:57:28.299Z,77.74
2023-10-13T08:59:56.736Z,77.42
2023-10-13T09:03:00.190Z,76.94
2023-10-13T09:06:02.090Z,76.95
2023-10-13T09:08:37.293Z,77.22
2023-10-13T09:11:15.160Z,77.02
2023-10-13T09:13:46.196Z,76.77
2023-10-13T09:16:38.271Z,76.75
2023-10-13T09:19:06.444Z,76.37
2023-10-13T09:21:41.491Z,76.06
2023-10-13T09:24:20.012Z,75.97
2023-10-13T09:26:50.592Z,75.58
2023-10-13T09:29:20.112Z,75.34
2023-10-13T09:32:01.085Z,75.58
2023-10-13T09:34:30.655Z,75.47
2023-10-13T09:37:00.237Z,74.96
2023-10-13T09:39:31.414Z,74.45
2023-10-13T09:42:00.642Z,74.22
2023-10-13T09:44:31.579Z,74.17
2023-10-13T09:47:09.572Z,74.25
2023-10-13T09:49:50.337Z,74.00
2023-10-13T09:52:21.685Z,73.81
2023-10-13T09:55:35.935Z,73.50
2023-10-13T09:58:14.917Z,73.46
2023-10-13T10:00:59.610Z,73.32
2023-10-13T10:03:36.801Z,73.55
2023-10-13T10:06:06.369Z,73.81
2023-10-13T10:08:36.266Z,74.05
2023-10-13T10:11:57.893Z,73.78
2023-10-13T10:14:40.926Z,73.73
2023-10-13T10:17:10.336Z,73.91
2023-10-13T10:19:56.633Z,73.54
2023-10-13T10:22:37.972Z,73.50
2023-10-13T10:25:26.518Z,73.28
2023-10-13T10:27:58.540Z,73.28
2023-10-13T10:30:31.263Z,73.19
2023-10-13T10:33:02.744Z,73.31
2023-10-13T10:35:31.111Z,73.39
2023-10-13T10:38:12.868Z,73.64
2023-10-13T10:41:05.794Z,73.45
2023-10-13T10:43:44.385Z,73.57
2023-10-13T10:46:41.588Z,73.66
2023-10-13T10:49:09.928Z,73.58
2023-10-13T10:51:45.926Z,73.61
2023-10-13T10:54:21.350Z,73.55
2023-10-13T10:56:55.165Z,73.62
2023-10-13T10:59:26.416Z,73.71
2023-10-13T11:01:54.568Z,73.58
2023-10-13T11:04:29.539Z,73.23
2023-10-13T11:06:59.322Z,73.03
2023-10-13T11:09:47.205Z,72.70
2023-10-13T11:12:16.647Z,72.58
2023-10-13T11:14:48.948Z,72.47
2023-10-13T11:17:39.856Z,72.39
2023-10-13T11:20:17.520Z,72.35
2023-10-13T11:22:49.285Z,72.09
2023-10-13T11:25:36.994Z,71.97
2023-10-13T11:28:19.488Z,72.14
2023-10-13T11:30:52.854Z,71.77
2023-10-13T11:33:30.294Z,71.13
2023-10-13T11:36:02.800Z,71.12
2023-10-13T11:38:55.646Z,70.95
2023-10-13T11:41:23.774Z,70.73
2023-10-13T11:43:53.092Z,70.58
2023-10-13T11:46:38.951Z,70.83
2023-10-13T11:49:28.575Z,70.15
2023-10-13T11:52:09.785Z,69.10
2023-10-13T11:54:43.060Z,68.50
2023-10-13T11:57:11.105Z,68.74
2023-10-13T11:59:45.529Z,68.23
2023-10-13T12:02:28.926Z,68.17
2023-10-13T12:04:58.352Z,67.90
2023-10-13T12:07:45.656Z,67.20
2023-10-13T12:10:18.172Z,66.73
2023-10-13T12:12:47.897Z,66.97
2023-10-13T12:15:27.212Z,66.51
2023-10-13T12:17:59.591Z,66.15
2023-10-13T12:20:34.137Z,65.90
2023-10-13T12:23:16.738Z,65.91
2023-10-13T12:26:01.765Z,65.61
2023-10-13T12:28:32.491Z,65.47
2023-10-13T12:31:09.154Z,65.46
2023-10-13T12:33:42.167Z,65.55
2023-10-13T12:36:22.580Z,65.34
2023-10-13T12:38:50.450Z,65.16
2023-10-13T12:41:40.088Z,65.30
2023-10-13T12:44:26.731Z,64.98
2023-10-13T12:47:13.854Z,64.72
2023-10-13T12:49:42.237Z,64.84
2023-10-13T12:52:33.615Z,65.10
2023-10-13T12:55:08.336Z,65.06
2023-10-13T12:57:44.397Z,64.99
2023-10-13T13:00:24.146Z,65.07
2023-10-13T13:02:53.903Z,64.91
2023-10-13T13:05:24.217Z,64.97
2023-10-13T13:07:55.363Z,65.15
2023-10-13T13:10:36.746Z,65.53
2023-10-13T13:13:06.540Z,65.53
2023-10-13T13:15:34.958Z,65.45
2023-10-13T13:18:11.825Z,65.41
2023-10-13T13:20:55.873Z,65.61
2023-10-13T13:23:32.435Z,65.56
2023-10-13T13:26:00.481Z,65.24
2023-10-13T13:28:38.991Z,64.42
2023-10-13T13:31:09.373Z,64.02
2023-10-13T13:33:39.859Z,63.88
2023-10-13T13:36:07.976Z,63.45
2023-10-13T13:38:36.029Z,63.27
2023-10-13T13:41:05.091Z,63.19
2023-10-13T13:43:39.573Z,63.07
2023-10-13T13:46:12.156Z,63.21
2023-10-13T13:48:42.181Z,63.22
2023-10-13T13:51:16.916Z,63.30
2023-10-13T13:53:51.511Z,63.30
2023-10-13T13:56:20.323Z,63.17
2023-10-13T13:58:57.370Z,63.52
2023-10-13T14:01:28.073Z,63.58
2023-10-13T14:04:04.188Z,63.80
2023-10-13T14:06:33.888Z,63.76
2023-10-13T14:09:04.947Z,63.85
2023-10-13T14:11:39.911Z,63.95
2023-10-13T14:14:30.098Z,64.02
2023-10-13T14:17:08.010Z,64.32
2023-10-13T14:19:41.979Z,64.62
2023-10-13T14:22:13.686Z,64.75
2023-10-13T14:24:47.181Z,64.88
2023-10-13T14:27:19.656Z,65.36
2023-10-13T14:29:48.503Z,65.53
2023-10-13T14:32:16.854Z,65.82
2023-10-13T14:34:47.301Z,65.73
2023-10-13T14:37:15.383Z,65.51
2023-10-13T14:39:43.298Z,65.59
2023-10-13T14:42:11.274Z,66.03
2023-10-13T14:44:39.378Z,65.98
2023-10-13T14:47:10.233Z,66.30
2023-10-13T14:49:38.529Z,66.51
2023-10-13T14:52:06.717Z,66.61
2023-10-13T14:54:34.954Z,66.75
2023-10-13T14:57:04.010Z,67.03
2023-10-13T14:59:34.585Z,67.31
2023-10-13T15:02:03.247Z,67.70
2023-10-13T15:04:34.675Z,67.88
2023-10-13T15:07:03.712Z,68.19
2023-10-13T15:09:31.735Z,68.42
2023-10-13T15:12:00.005Z,68.74
2023-10-13T15:14:27.967Z,68.89
2023-10-13T15:17:01.670Z,68.92
2023-10-13T15:19:31.298Z,69.15
2023-10-13T15:22:00.788Z,69.21
2023-10-13T15:24:32.679Z,69.43
2023-10-13T15:27:09.618Z,69.46
2023-10-13T15:29:38.443Z,69.61
2023-10-13T15:32:27.494Z,69.94
2023-10-13T15:34:57.078Z,70.44
2023-10-13T15:37:26.887Z,70.60
2023-10-13T15:39:56.422Z,70.74
2023-10-13T15:42:24.563Z,70.79
2023-10-13T15:44:52.957Z,70.86
2023-10-13T15:49:51.897Z,71.18
2023-10-13T15:52:20.216Z,71.36
2023-10-13T15:54:48.625Z,71.64
2023-10-13T15:57:18.137Z,71.55
2023-10-13T15:59:47.681Z,71.94
2023-10-13T16:02:21.073Z,72.02
2023-10-13T16:04:49.410Z,72.09
2023-10-13T16:07:19.189Z,72.32
2023-10-13T16:09:47.784Z,72.30
2023-10-13T16:12:16.711Z,72.47
2023-10-13T16:14:44.836Z,72.84
2023-10-13T16:17:12.747Z,72.89
2023-10-13T16:19:40.970Z,72.92
2023-10-13T16:22:11.071Z,72.97
2023-10-13T16:24:39.316Z,73.06
2023-10-13T16:27:07.731Z,73.33
2023-10-13T16:29:35.774Z,73.64
2023-10-13T16:32:04.038Z,73.84
2023-10-13T16:34:32.001Z,73.88
2023-10-13T16:37:00.264Z,73.96
2023-10-13T16:39:29.608Z,74.23
2023-10-13T16:41:57.776Z,74.34
2023-10-13T16:44:28.269Z,74.64
2023-10-13T16:47:01.837Z,74.86
2023-10-13T16:49:31.543Z,74.50
2023-10-13T16:52:01.673Z,74.39
2023-10-13T16:54:30.328Z,74.55
2023-10-13T16:56:58.464Z,74.72
2023-10-13T16:59:27.394Z,74.75
2023-10-13T17:01:56.264Z,74.90
2023-10-13T17:04:28.280Z,74.87
2023-10-13T17:06:56.865Z,74.91
2023-10-13T17:09:25.670Z,74.97
2023-10-13T17:11:53.932Z,75.19
2023-10-13T17:14:22.010Z,75.41
2023-10-13T17:16:50.279Z,75.82
2023-10-13T17:19:18.289Z,76.08
2023-10-13T17:21:48.362Z,76.08
2023-10-13T17:24:16.820Z,76.14
2023-10-13T17:26:44.772Z,76.32
2023-10-13T17:29:12.945Z,76.71
2023-10-13T17:31:40.895Z,76.96
2023-10-13T17:34:08.845Z,77.05
2023-10-13T17:36:39.500Z,77.32
2023-10-13T17:39:10.183Z,77.20
2023-10-13T17:41:38.075Z,77.31
2023-10-13T17:44:09.068Z,77.70
2023-10-13T17:46:41.100Z,78.09
2023-10-13T17:49:09.466Z,78.24
2023-10-13T17:51:37.588Z,78.24
2023-10-13T17:54:07.024Z,78.00
2023-10-13T17:56:34.935Z,77.57
2023-10-13T17:59:03.006Z,77.52
2023-10-13T18:01:33.349Z,77.22
2023-10-13T18:04:05.855Z,76.86
2023-10-13T18:06:38.206Z,76.95
2023-10-13T18:09:12.217Z,77.20
2023-10-13T18:11:43.957Z,77.35
2023-10-13T18:14:13.074Z,77.33
2023-10-13T18:16:42.668Z,77.50
2023-10-13T18:19:11.090Z,77.43
2023-10-13T18:21:39.100Z,77.31
2023-10-13T18:24:09.513Z,77.43
2023-10-13T18:26:37.748Z,77.56
2023-10-13T18:29:05.742Z,77.47
2023-10-13T18:31:34.829Z,77.41
2023-10-13T18:34:03.727Z,77.47
2023-10-13T18:36:32.834Z,77.67
2023-10-13T18:39:03.116Z,77.65
2023-10-13T18:41:34.013Z,77.74
2023-10-13T18:44:02.086Z,77.60
2023-10-13T18:46:31.317Z,77.69
2023-10-13T18:48:59.861Z,78.01
2023-10-13T18:51:28.098Z,78.35
2023-10-13T18:53:58.107Z,78.61
2023-10-13T18:56:26.348Z,78.87
2023-10-13T18:58:57.817Z,79.02
2023-10-13T19:01:30.966Z,79.27
2023-10-13T19:04:01.280Z,79.34
2023-10-13T19:06:34.918Z,79.27
2023-10-13T19:09:06.873Z,79.23
2023-10-13T19:11:37.945Z,79.21
2023-10-13T19:14:11.392Z,79.36
2023-10-13T19:16:43.146Z,79.61
2023-10-13T19:19:11.246Z,79.55
2023-10-13T19:21:39.316Z,79.35
2023-10-13T19:24:08.262Z,79.45
2023-10-13T19:26:38.393Z,79.19
2023-10-13T19:29:07.016Z,79.27
2023-10-13T19:31:36.177Z,79.38
2023-10-13T19:34:06.406Z,79.29
2023-10-13T19:36:35.704Z,79.06
2023-10-13T19:39:08.997Z,78.83
2023-10-13T19:41:38.170Z,79.08
2023-10-13T19:44:09.282Z,79.25
2023-10-13T19:46:37.408Z,79.75
2023-10-13T19:49:06.406Z,79.87
2023-10-13T19:51:35.431Z,79.62
2023-10-13T19:54:04.423Z,79.66
2023-10-13T19:56:33.705Z,79.24
2023-10-13T19:59:02.657Z,79.34
2023-10-13T20:01:35.007Z,79.53
2023-10-13T20:04:08.482Z,79.68
2023-10-13T20:06:37.015Z,79.49
2023-10-13T20:09:10.288Z,79.30
2023-10-13T20:11:39.395Z,79.51
2023-10-13T20:14:10.879Z,79.74
2023-10-13T20:16:39.065Z,79.95
2023-10-13T20:19:07.232Z,80.23
2023-10-13T20:21:37.021Z,80.62
2023-10-13T20:24:05.861Z,80.83
2023-10-13T20:26:44.112Z,80.79
2023-10-13T20:29:17.319Z,80.79
2023-10-13T20:31:49.143Z,80.91
2023-10-13T20:34:24.388Z,80.72
2023-10-13T20:36:56.072Z,80.56
2023-10-13T20:39:42.822Z,80.71
2023-10-13T20:42:10.914Z,80.97
2023-10-13T20:44:39.368Z,81.17
2023-10-13T20:47:08.189Z,80.79
2023-10-13T20:49:36.348Z,80.94
2023-10-13T20:52:06.432Z,80.66
2023-10-13T20:54:34.890Z,80.64
2023-10-13T20:57:09.130Z,80.62
2023-10-13T20:59:40.814Z,80.55
2023-10-13T21:02:08.953Z,80.62
2023-10-13T21:04:36.979Z,80.86
2023-10-13T21:07:06.006Z,81.07
2023-10-13T21:09:34.305Z,81.13
2023-10-13T21:12:06.458Z,81.21
2023-10-13T21:14:37.465Z,81.14
2023-10-13T21:17:05.917Z,81.23
2023-10-13T21:19:37.613Z,81.19
2023-10-13T21:22:09.360Z,81.13
2023-10-13T21:24:38.090Z,80.86
2023-10-13T21:27:06.181Z,80.61
2023-10-13T21:29:34.421Z,80.55
2023-10-13T21:32:02.958Z,80.79
2023-10-13T21:34:31.907Z,80.84
2023-10-13T21:37:01.077Z,80.73
2023-10-13T21:39:45.392Z,81.15
2023-10-13T21:42:16.384Z,81.27
2023-10-13T21:44:44.476Z,81.30
2023-10-13T21:47:12.962Z,81.15
2023-10-13T21:49:42.155Z,81.20
2023-10-13T21:52:10.465Z,81.39
2023-10-13T21:54:39.104Z,81.54
2023-10-13T21:57:07.016Z,81.73
2023-10-13T21:59:34.854Z,81.74
2023-10-13T22:02:03.027Z,81.66
2023-10-13T22:04:32.808Z,81.77
2023-10-13T22:07:00.898Z,81.50
2023-10-13T22:09:28.937Z,81.56
2023-10-13T22:11:57.058Z,81.88
2023-10-13T22:14:25.091Z,81.67
2023-10-13T22:16:53.126Z,81.54
2023-10-13T22:19:21.293Z,81.99
2023-10-13T22:21:53.253Z,82.10
2023-10-13T22:24:22.210Z,82.18
2023-10-13T22:26:50.331Z,82.15
2023-10-13T22:29:18.387Z,82.17
2023-10-13T22:31:46.587Z,81.94
2023-10-13T22:34:19.305Z,82.13
2023-10-13T22:37:02.798Z,82.42
2023-10-13T22:39:34.852Z,82.50
2023-10-13T22:42:03.749Z,82.29
2023-10-13T22:44:33.897Z,82.13
2023-10-13T22:47:01.937Z,81.81
2023-10-13T22:49:33.538Z,82.11
2023-10-13T22:52:02.016Z,82.41
2023-10-13T22:54:30.821Z,82.32
2023-10-13T22:56:59.026Z,82.27
2023-10-13T22:59:28.574Z,82.78
2023-10-13T23:02:00.302Z,82.49
2023-10-13T23:04:29.042Z,82.34
2023-10-13T23:06:59.661Z,81.91
2023-10-13T23:09:28.005Z,81.95
2023-10-13T23:11:57.679Z,81.90
2023-10-13T23:14:26.838Z,82.17
2023-10-13T23:16:55.048Z,82.12
2023-10-13T23:19:26.127Z,81.64
2023-10-13T23:21:55.684Z,81.96
2023-10-13T23:24:24.498Z,82.81
2023-10-13T23:26:52.413Z,82.63
2023-10-13T23:29:20.360Z,82.83
2023-10-13T23:31:48.964Z,82.99
2023-10-13T23:34:18.124Z,83.13
2023-10-13T23:36:46.285Z,82.92
2023-10-13T23:39:18.196Z,82.84
2023-10-13T23:41:46.118Z,82.86
2023-10-13T23:44:16.787Z,83.04
2023-10-13T23:46:44.996Z,83.06
2023-10-13T23:49:20.808Z,82.93
2023-10-13T23:51:55.024Z,82.84
2023-10-13T23:54:23.600Z,82.98
2023-10-13T23:56:53.434Z,82.85
2023-10-13T23:59:30.452Z,82.55
